Terminal Aerodrome Forecast
Issued by NWS Portland, OR

Home | Current Version | Previous Version | Text Only | Print | Product List | Glossary On
Versions: 1 2 3 4 5 6 7 8 9 10 11 12 13 14 15 16 17 18
000
FTUS46 KPQR 231454 AAA
TAFTTD
TAF AMD
KTTD 231454Z 2315/2412 11006KT P6SM SCT250
     FM231800 12007KT P6SM SCT080 OVC150
     FM232100 12006KT P6SM SCT040 OVC080
     FM240000 12008KT P6SM -RASN SCT025 OVC040
     FM240300 12010KT P6SM -RA SCT025 OVC040
     FM240700 19010KT P6SM -SHRA BKN025 BKN040=

USA.gov is the U.S. government's official web portal to all federal, state and local government web resources and services.